sensor_id;sensor_type;location;lat;lon;timestamp;pressure;altitude;pressure_sealevel;temperature;humidity
48800;BME280;34611;47.964;7.982;2023-04-08T00:00:38;97039.75;;;10.35;51.93
48800;BME280;34611;47.964;7.982;2023-04-08T00:07:39;97040.59;;;10.36;51.97
48800;BME280;34611;47.964;7.982;2023-04-08T00:14:39;97037.16;;;10.35;51.86
48800;BME280;34611;47.964;7.982;2023-04-08T00:21:40;97031.97;;;10.35;51.99
48800;BME280;34611;47.964;7.982;2023-04-08T00:28:41;97034.56;;;10.35;51.79
48800;BME280;34611;47.964;7.982;2023-04-08T00:35:42;97031.03;;;10.36;51.98
48800;BME280;34611;47.964;7.982;2023-04-08T00:42:42;97029.38;;;10.35;51.80
48800;BME280;34611;47.964;7.982;2023-04-08T00:49:42;97036.22;;;10.36;51.94
48800;BME280;34611;47.964;7.982;2023-04-08T00:56:43;97040.59;;;10.36;51.99
48800;BME280;34611;47.964;7.982;2023-04-08T01:11:02;97038.00;;;10.36;51.94
48800;BME280;34611;47.964;7.982;2023-04-08T01:18:06;97033.63;;;10.36;52.05
48800;BME280;34611;47.964;7.982;2023-04-08T01:25:26;97035.41;;;10.36;52.06
48800;BME280;34611;47.964;7.982;2023-04-08T01:32:29;97025.00;;;10.36;52.04
48800;BME280;34611;47.964;7.982;2023-04-08T01:39:30;97018.97;;;10.35;52.10
48800;BME280;34611;47.964;7.982;2023-04-08T01:46:31;97035.41;;;10.36;52.06
48800;BME280;34611;47.964;7.982;2023-04-08T01:53:32;97027.63;;;10.36;51.95
48800;BME280;34611;47.964;7.982;2023-04-08T02:00:33;97042.25;;;10.37;51.96
48800;BME280;34611;47.964;7.982;2023-04-08T02:07:34;97039.75;;;10.35;51.93
48800;BME280;34611;47.964;7.982;2023-04-08T02:14:35;97041.41;;;10.36;52.06
48800;BME280;34611;47.964;7.982;2023-04-08T02:21:37;97039.75;;;10.35;51.95
48800;BME280;34611;47.964;7.982;2023-04-08T02:28:42;97044.03;;;10.36;51.88
48800;BME280;34611;47.964;7.982;2023-04-08T02:35:42;97038.81;;;10.36;51.87
48800;BME280;34611;47.964;7.982;2023-04-08T02:42:43;97050.03;;;10.37;52.17
48800;BME280;34611;47.964;7.982;2023-04-08T02:49:44;97044.03;;;10.36;52.09
48800;BME280;34611;47.964;7.982;2023-04-08T02:56:44;97038.00;;;10.36;52.21
48800;BME280;34611;47.964;7.982;2023-04-08T03:03:44;97039.75;;;10.35;52.05
48800;BME280;34611;47.964;7.982;2023-04-08T03:10:45;97038.81;;;10.36;52.15
48800;BME280;34611;47.964;7.982;2023-04-08T03:17:45;97040.47;;;10.37;51.90
48800;BME280;34611;47.964;7.982;2023-04-08T03:24:46;97043.06;;;10.37;52.09
48800;BME280;34611;47.964;7.982;2023-04-08T03:31:46;97050.84;;;10.37;52.03
48800;BME280;34611;47.964;7.982;2023-04-08T03:38:46;97050.03;;;10.37;52.00
48800;BME280;34611;47.964;7.982;2023-04-08T03:45:46;97044.03;;;10.36;52.08
48800;BME280;34611;47.964;7.982;2023-04-08T03:52:47;97042.25;;;10.37;52.16
48800;BME280;34611;47.964;7.982;2023-04-08T03:59:47;97038.72;;;10.38;52.07
48800;BME280;34611;47.964;7.982;2023-04-08T04:06:48;97036.94;;;10.38;51.97
48800;BME280;34611;47.964;7.982;2023-04-08T04:13:48;97034.44;;;10.37;52.23
48800;BME280;34611;47.964;7.982;2023-04-08T04:20:48;97043.06;;;10.37;52.17
48800;BME280;34611;47.964;7.982;2023-04-08T04:27:49;97044.72;;;10.38;52.23
48800;BME280;34611;47.964;7.982;2023-04-08T04:34:49;97046.63;;;10.36;52.19
48800;BME280;34611;47.964;7.982;2023-04-08T04:41:49;97053.44;;;10.37;52.14
48800;BME280;34611;47.964;7.982;2023-04-08T04:48:50;97061.25;;;10.37;52.04
48800;BME280;34611;47.964;7.982;2023-04-08T04:55:50;97068.13;;;10.38;52.14
48800;BME280;34611;47.964;7.982;2023-04-08T05:02:50;97070.72;;;10.38;52.23
48800;BME280;34611;47.964;7.982;2023-04-08T05:09:51;97074.25;;;10.37;52.13
48800;BME280;34611;47.964;7.982;2023-04-08T05:16:51;97085.47;;;10.38;52.25
48800;BME280;34611;47.964;7.982;2023-04-08T05:23:52;97088.09;;;10.38;52.13
48800;BME280;34611;47.964;7.982;2023-04-08T05:30:52;97093.28;;;10.38;52.31
48800;BME280;34611;47.964;7.982;2023-04-08T05:37:53;97081.09;;;10.38;52.05
48800;BME280;34611;47.964;7.982;2023-04-08T05:44:53;97084.63;;;10.37;52.21
48800;BME280;34611;47.964;7.982;2023-04-08T05:51:54;97091.63;;;10.37;52.32
48800;BME280;34611;47.964;7.982;2023-04-08T05:58:54;97100.22;;;10.37;52.37
48800;BME280;34611;47.964;7.982;2023-04-08T06:05:55;97116.66;;;10.38;52.33
48800;BME280;34611;47.964;7.982;2023-04-08T06:12:55;97113.22;;;10.37;52.07
48800;BME280;34611;47.964;7.982;2023-04-08T06:19:55;97126.22;;;10.37;52.23
48800;BME280;34611;47.964;7.982;2023-04-08T06:26:56;97121.03;;;10.37;52.38
48800;BME280;34611;47.964;7.982;2023-04-08T06:33:56;97121.03;;;10.37;52.18
48800;BME280;34611;47.964;7.982;2023-04-08T06:41:00;97127.06;;;10.38;52.24
48800;BME280;34611;47.964;7.982;2023-04-08T06:48:01;97132.25;;;10.38;52.38
48800;BME280;34611;47.964;7.982;2023-04-08T06:55:01;97136.59;;;10.37;52.32
48800;BME280;34611;47.964;7.982;2023-04-08T07:02:01;97140.88;;;10.38;52.44
48800;BME280;34611;47.964;7.982;2023-04-08T07:09:01;97147.84;;;10.38;52.21
48800;BME280;34611;47.964;7.982;2023-04-08T07:16:02;97148.66;;;10.38;52.21
48800;BME280;34611;47.964;7.982;2023-04-08T07:23:02;97157.41;;;10.37;52.35
48800;BME280;34611;47.964;7.982;2023-04-08T07:30:03;97156.47;;;10.38;52.32
48800;BME280;34611;47.964;7.982;2023-04-08T07:37:03;97161.66;;;10.38;52.43
48800;BME280;34611;47.964;7.982;2023-04-08T07:44:03;97159.06;;;10.38;52.41
48800;BME280;34611;47.964;7.982;2023-04-08T07:51:04;97161.66;;;10.38;52.23
48800;BME280;34611;47.964;7.982;2023-04-08T07:58:05;97160.72;;;10.39;52.26
48800;BME280;34611;47.964;7.982;2023-04-08T08:05:05;97160.72;;;10.39;52.29
48800;BME280;34611;47.964;7.982;2023-04-08T08:12:06;97168.66;;;10.38;52.27
48800;BME280;34611;47.964;7.982;2023-04-08T08:19:07;97161.66;;;10.38;52.28
48800;BME280;34611;47.964;7.982;2023-04-08T08:26:08;97173.00;;;10.37;52.21
48800;BME280;34611;47.964;7.982;2023-04-08T08:33:11;97171.94;;;10.40;52.23
48800;BME280;34611;47.964;7.982;2023-04-08T08:40:12;97186.69;;;10.39;52.40
48800;BME280;34611;47.964;7.982;2023-04-08T08:47:13;97181.50;;;10.39;52.27
48800;BME280;34611;47.964;7.982;2023-04-08T08:54:13;97189.28;;;10.39;52.45
48800;BME280;34611;47.964;7.982;2023-04-08T09:01:30;97189.44;;;10.38;52.44
48800;BME280;34611;47.964;7.982;2023-04-08T09:08:35;97198.03;;;10.38;52.54
48800;BME280;34611;47.964;7.982;2023-04-08T09:15:35;97201.47;;;10.39;52.31
48800;BME280;34611;47.964;7.982;2023-04-08T09:22:55;97202.28;;;10.39;52.32
48800;BME280;34611;47.964;7.982;2023-04-08T09:30:11;97199.69;;;10.39;52.44
48800;BME280;34611;47.964;7.982;2023-04-08T09:37:12;97206.66;;;10.39;52.46
48800;BME280;34611;47.964;7.982;2023-04-08T09:44:12;97203.94;;;10.40;52.60
48800;BME280;34611;47.964;7.982;2023-04-08T09:51:14;97207.47;;;10.39;52.51
48800;BME280;34611;47.964;7.982;2023-04-08T09:58:15;97211.84;;;10.39;52.46
48800;BME280;34611;47.964;7.982;2023-04-08T10:05:18;97205.72;;;10.40;52.56
48800;BME280;34611;47.964;7.982;2023-04-08T10:12:18;97211.75;;;10.40;52.51
48800;BME280;34611;47.964;7.982;2023-04-08T10:26:43;97212.69;;;10.39;52.40
48800;BME280;34611;47.964;7.982;2023-04-08T10:33:43;97216.13;;;10.40;52.31
48800;BME280;34611;47.964;7.982;2023-04-08T10:40:44;97202.28;;;10.39;52.47
48800;BME280;34611;47.964;7.982;2023-04-08T10:47:45;97206.66;;;10.39;52.31
48800;BME280;34611;47.964;7.982;2023-04-08T10:54:45;97207.47;;;10.39;52.33
48800;BME280;34611;47.964;7.982;2023-04-08T11:01:47;97201.34;;;10.40;52.44
48800;BME280;34611;47.964;7.982;2023-04-08T11:08:47;97206.66;;;10.39;52.55
48800;BME280;34611;47.964;7.982;2023-04-08T11:15:48;97204.88;;;10.39;52.22
48800;BME280;34611;47.964;7.982;2023-04-08T11:22:48;97209.97;;;10.41;52.40
48800;BME280;34611;47.964;7.982;2023-04-08T11:29:49;97207.47;;;10.39;52.56
48800;BME280;34611;47.964;7.982;2023-04-08T11:36:50;97206.56;;;10.40;52.48
48800;BME280;34611;47.964;7.982;2023-04-08T11:43:51;97203.13;;;10.40;52.42
48800;BME280;34611;47.964;7.982;2023-04-08T11:51:01;97194.50;;;10.39;52.43
48800;BME280;34611;47.964;7.982;2023-04-08T11:58:03;97194.38;;;10.41;52.60
48800;BME280;34611;47.964;7.982;2023-04-08T12:05:03;97189.28;;;10.39;52.44
48800;BME280;34611;47.964;7.982;2023-04-08T12:12:04;97193.56;;;10.40;52.64
48800;BME280;34611;47.964;7.982;2023-04-08T12:19:04;97190.13;;;10.40;52.43
48800;BME280;34611;47.964;7.982;2023-04-08T12:26:05;97192.75;;;10.40;52.45
48800;BME280;34611;47.964;7.982;2023-04-08T12:33:06;97184.09;;;10.39;52.66
48800;BME280;34611;47.964;7.982;2023-04-08T12:40:06;97186.69;;;10.39;52.40
48800;BME280;34611;47.964;7.982;2023-04-08T12:47:06;97177.97;;;10.40;52.38
48800;BME280;34611;47.964;7.982;2023-04-08T12:54:07;97173.59;;;10.41;52.45
48800;BME280;34611;47.964;7.982;2023-04-08T13:01:07;97171.94;;;10.40;52.61
48800;BME280;34611;47.964;7.982;2023-04-08T13:08:08;97175.38;;;10.40;52.63
48800;BME280;34611;47.964;7.982;2023-04-08T13:15:08;97173.69;;;10.39;52.42
48800;BME280;34611;47.964;7.982;2023-04-08T13:22:09;97182.19;;;10.41;52.47
48800;BME280;34611;47.964;7.982;2023-04-08T13:29:09;97175.38;;;10.40;52.48
48800;BME280;34611;47.964;7.982;2023-04-08T13:36:09;97175.25;;;10.42;52.64
48800;BME280;34611;47.964;7.982;2023-04-08T13:43:09;97169.34;;;10.40;52.69
48800;BME280;34611;47.964;7.982;2023-04-08T13:50:10;97177.84;;;10.42;52.67
48800;BME280;34611;47.964;7.982;2023-04-08T13:57:10;97173.59;;;10.41;52.60
48800;BME280;34611;47.964;7.982;2023-04-08T14:04:10;97174.41;;;10.41;52.65
48800;BME280;34611;47.964;7.982;2023-04-08T14:11:11;97180.56;;;10.40;52.66
48800;BME280;34611;47.964;7.982;2023-04-08T14:18:11;97180.56;;;10.40;52.59
48800;BME280;34611;47.964;7.982;2023-04-08T14:25:12;97173.59;;;10.41;52.70
48800;BME280;34611;47.964;7.982;2023-04-08T14:32:12;97173.47;;;10.42;52.72
48800;BME280;34611;47.964;7.982;2023-04-08T14:39:13;97180.56;;;10.40;52.54
48800;BME280;34611;47.964;7.982;2023-04-08T14:46:13;97180.44;;;10.42;52.73
48800;BME280;34611;47.964;7.982;2023-04-08T14:53:13;97182.09;;;10.43;52.69
48800;BME280;34611;47.964;7.982;2023-04-08T15:00:13;97183.16;;;10.40;52.69
48800;BME280;34611;47.964;7.982;2023-04-08T15:07:14;97181.28;;;10.42;52.73
48800;BME280;34611;47.964;7.982;2023-04-08T15:14:14;97185.66;;;10.42;52.69
48800;BME280;34611;47.964;7.982;2023-04-08T15:21:15;97191.66;;;10.42;52.74
48800;BME280;34611;47.964;7.982;2023-04-08T15:28:15;97193.44;;;10.42;52.71
48800;BME280;34611;47.964;7.982;2023-04-08T15:35:15;97195.19;;;10.41;52.55
48800;BME280;34611;47.964;7.982;2023-04-08T15:42:16;97191.66;;;10.42;52.79
48800;BME280;34611;47.964;7.982;2023-04-08T15:49:16;97191.66;;;10.42;52.68
48800;BME280;34611;47.964;7.982;2023-04-08T15:56:16;97198.66;;;10.42;52.63
48800;BME280;34611;47.964;7.982;2023-04-08T16:03:17;97200.41;;;10.41;52.61
48800;BME280;34611;47.964;7.982;2023-04-08T16:10:17;97206.44;;;10.42;52.82
48800;BME280;34611;47.964;7.982;2023-04-08T16:17:17;97209.03;;;10.42;52.52
48800;BME280;34611;47.964;7.982;2023-04-08T16:24:17;97199.56;;;10.41;52.65
48800;BME280;34611;47.964;7.982;2023-04-08T16:31:19;97200.41;;;10.41;52.85
48800;BME280;34611;47.964;7.982;2023-04-08T16:38:19;97209.03;;;10.42;52.69
48800;BME280;34611;47.964;7.982;2023-04-08T16:45:20;97211.63;;;10.42;52.63
48800;BME280;34611;47.964;7.982;2023-04-08T16:52:20;97216.84;;;10.42;52.80
48800;BME280;34611;47.964;7.982;2023-04-08T16:59:21;97222.84;;;10.42;52.80
48800;BME280;34611;47.964;7.982;2023-04-08T17:06:21;97222.03;;;10.42;52.84
48800;BME280;34611;47.964;7.982;2023-04-08T17:13:21;97222.03;;;10.42;52.70
48800;BME280;34611;47.964;7.982;2023-04-08T17:20:21;97228.88;;;10.43;52.86
48800;BME280;34611;47.964;7.982;2023-04-08T17:27:23;97233.25;;;10.42;52.70
48800;BME280;34611;47.964;7.982;2023-04-08T17:34:24;97239.25;;;10.43;52.77
48800;BME280;34611;47.964;7.982;2023-04-08T17:41:25;97235.03;;;10.42;52.78
48800;BME280;34611;47.964;7.982;2023-04-08T17:48:26;97247.88;;;10.43;52.77
48800;BME280;34611;47.964;7.982;2023-04-08T17:55:26;97256.66;;;10.42;52.67
48800;BME280;34611;47.964;7.982;2023-04-08T18:02:27;97256.66;;;10.42;52.76
48800;BME280;34611;47.964;7.982;2023-04-08T18:09:28;97260.88;;;10.43;52.56
48800;BME280;34611;47.964;7.982;2023-04-08T18:16:29;97276.47;;;10.43;52.82
48800;BME280;34611;47.964;7.982;2023-04-08T18:23:29;97274.84;;;10.42;52.80
48800;BME280;34611;47.964;7.982;2023-04-08T18:30:30;97284.28;;;10.43;52.61
48800;BME280;34611;47.964;7.982;2023-04-08T18:37:30;97289.47;;;10.43;52.61
48800;BME280;34611;47.964;7.982;2023-04-08T18:44:30;97302.47;;;10.43;52.87
48800;BME280;34611;47.964;7.982;2023-04-08T18:51:30;97302.47;;;10.43;52.80
48800;BME280;34611;47.964;7.982;2023-04-08T18:58:32;97314.63;;;10.43;52.81
48800;BME280;34611;47.964;7.982;2023-04-08T19:05:34;97319.84;;;10.43;52.70
48800;BME280;34611;47.964;7.982;2023-04-08T19:12:34;97326.72;;;10.44;52.80
48800;BME280;34611;47.964;7.982;2023-04-08T19:19:34;97319.00;;;10.42;52.79
48800;BME280;34611;47.964;7.982;2023-04-08T19:26:34;97331.06;;;10.43;52.75
48800;BME280;34611;47.964;7.982;2023-04-08T19:33:35;97328.44;;;10.43;52.69
48800;BME280;34611;47.964;7.982;2023-04-08T19:40:35;97329.31;;;10.44;52.76
48800;BME280;34611;47.964;7.982;2023-04-08T19:47:35;97331.19;;;10.42;52.82
48800;BME280;34611;47.964;7.982;2023-04-08T19:54:36;97333.66;;;10.43;52.71
48800;BME280;34611;47.964;7.982;2023-04-08T20:01:36;97337.09;;;10.44;52.81
48800;BME280;34611;47.964;7.982;2023-04-08T20:08:38;97344.91;;;10.44;52.81
48800;BME280;34611;47.964;7.982;2023-04-08T20:15:38;97336.25;;;10.43;52.93
48800;BME280;34611;47.964;7.982;2023-04-08T20:22:39;97343.22;;;10.43;52.95
48800;BME280;34611;47.964;7.982;2023-04-08T20:29:40;97335.44;;;10.43;52.89
48800;BME280;34611;47.964;7.982;2023-04-08T20:36:41;97336.25;;;10.43;52.90
48800;BME280;34611;47.964;7.982;2023-04-08T20:43:42;97336.16;;;10.45;52.92
48800;BME280;34611;47.964;7.982;2023-04-08T20:50:45;97344.91;;;10.44;52.80
48800;BME280;34611;47.964;7.982;2023-04-08T20:57:46;97344.06;;;10.43;52.95
48800;BME280;34611;47.964;7.982;2023-04-08T21:04:47;97338.84;;;10.43;52.80
48800;BME280;34611;47.964;7.982;2023-04-08T21:11:47;97334.59;;;10.42;52.88
48800;BME280;34611;47.964;7.982;2023-04-08T21:18:48;97332.84;;;10.43;52.90
48800;BME280;34611;47.964;7.982;2023-04-08T21:25:48;97331.06;;;10.43;52.73
48800;BME280;34611;47.964;7.982;2023-04-08T21:32:48;97323.25;;;10.43;52.87
48800;BME280;34611;47.964;7.982;2023-04-08T21:39:48;97324.94;;;10.44;53.04
48800;BME280;34611;47.964;7.982;2023-04-08T21:46:49;97328.44;;;10.43;52.86
48800;BME280;34611;47.964;7.982;2023-04-08T21:53:49;97340.53;;;10.44;52.97
48800;BME280;34611;47.964;7.982;2023-04-08T22:00:50;97344.06;;;10.43;52.89
48800;BME280;34611;47.964;7.982;2023-04-08T22:07:52;97333.66;;;10.43;53.01
48800;BME280;34611;47.964;7.982;2023-04-08T22:14:53;97324.94;;;10.44;52.98
48800;BME280;34611;47.964;7.982;2023-04-08T22:21:53;97332.72;;;10.44;52.78
48800;BME280;34611;47.964;7.982;2023-04-08T22:28:53;97325.03;;;10.43;53.10
48800;BME280;34611;47.964;7.982;2023-04-08T22:35:55;97330.13;;;10.44;52.97
48800;BME280;34611;47.964;7.982;2023-04-08T22:42:55;97335.31;;;10.44;53.04
48800;BME280;34611;47.964;7.982;2023-04-08T22:49:56;97331.06;;;10.43;53.02
48800;BME280;34611;47.964;7.982;2023-04-08T22:56:56;97328.44;;;10.43;52.95
48800;BME280;34611;47.964;7.982;2023-04-08T23:03:56;97319.84;;;10.43;52.98
48800;BME280;34611;47.964;7.982;2023-04-08T23:10:57;97323.25;;;10.43;53.07
48800;BME280;34611;47.964;7.982;2023-04-08T23:17:57;97324.94;;;10.44;52.95
48800;BME280;34611;47.964;7.982;2023-04-08T23:24:57;97324.09;;;10.44;53.01
48800;BME280;34611;47.964;7.982;2023-04-08T23:31:57;97322.31;;;10.44;52.95
48800;BME280;34611;47.964;7.982;2023-04-08T23:38:58;97325.03;;;10.43;53.09
48800;BME280;34611;47.964;7.982;2023-04-08T23:45:58;97318.06;;;10.43;53.18
48800;BME280;34611;47.964;7.982;2023-04-08T23:52:58;97318.91;;;10.44;53.06
48800;BME280;34611;47.964;7.982;2023-04-08T23:59:58;97308.50;;;10.44;53.10
